Merepoint, Maine
Current Conditions -  °F | °C
As of 9:51 AM on Tuesday 21 Oct 2014 (Local Time) from KPWM Reporting Station
Overcast Overcast  
Wind Chill: 52°   Ceiling: 4300
Heat Index: 52°   Visibility: 10mi
Dew Point: 46°   Wind: 5mph
Humidity: 80%   Direction: 40°NE
Pressure: 30.05"   Gusts: NA
Location:  43.82°N, 70.03°W
Report Text: KPWM 211351Z 04004KT 10SM FEW020 SCT034 OVC043 11/08 A3005 RMK AO2 SLP175 T01110078
Loading
Personal Weather Stations






























Interactive Weather Map
Tropical Storm Tracking
New forecast layout! Learn more

10-Day Weather Forecast

Advertisements
Track Severe Weather on mobile